Time;durP1;ratioP1;P1;durP2;ratioP2;P2;SDS_P1;SDS_P2;PMS_P1;PMS_P2;Temp;Humidity;BMP_temperature;BMP_pressure;BME280_temperature;BME280_humidity;BME280_pressure;Samples;Min_cycle;Max_cycle;Signal;HPM_P1;HPM_P2
2022/04/02 00:01:51;;;;;;;15.43;6.60;;;;;;;14.09;90.10;97815.66;5070088;28;20195;-59
2022/04/02 00:04:20;;;;;;;13.10;6.00;;;;;;;14.13;90.19;97821.59;5070417;28;20230;-58
2022/04/02 00:06:47;;;;;;;11.57;5.90;;;;;;;14.12;89.50;97819.88;5070249;28;20276;-59
2022/04/02 00:09:14;;;;;;;14.80;6.13;;;;;;;14.16;89.47;97818.94;5070067;28;20280;-59
2022/04/02 00:11:41;;;;;;;16.67;6.87;;;;;;;14.10;89.23;97817.38;5070278;28;20582;-62
2022/04/02 00:14:08;;;;;;;11.57;5.57;;;;;;;14.07;89.65;97825.19;5070024;28;20287;-63
2022/04/02 00:16:35;;;;;;;15.83;6.60;;;;;;;13.98;89.36;97824.56;5070117;28;20619;-64
2022/04/02 00:19:02;;;;;;;14.00;7.17;;;;;;;13.89;89.92;97822.19;5070011;28;20279;-62
2022/04/02 00:21:30;;;;;;;17.60;6.33;;;;;;;13.84;90.27;97817.16;5070028;28;20198;-63
2022/04/02 00:23:57;;;;;;;12.50;6.07;;;;;;;13.79;90.75;97805.25;5070228;28;20285;-63
2022/04/02 00:26:24;;;;;;;14.43;6.90;;;;;;;13.79;90.96;97805.25;5070073;28;20302;-63
2022/04/02 00:28:51;;;;;;;17.80;7.87;;;;;;;13.75;91.21;97819.09;5070016;28;20198;-62
2022/04/02 00:31:19;;;;;;;13.93;6.90;;;;;;;13.83;91.29;97817.19;5069842;28;20195;-62
2022/04/02 00:33:47;;;;;;;18.30;7.10;;;;;;;13.84;91.12;97821.47;5069844;28;20194;-62
2022/04/02 00:36:16;;;;;;;14.93;7.13;;;;;;;13.89;90.93;97824.78;5070106;28;20197;-62
2022/04/02 00:38:44;;;;;;;13.43;6.87;;;;;;;13.76;91.03;97785.47;5069766;28;20191;-63
2022/04/02 00:41:12;;;;;;;17.10;6.53;;;;;;;13.91;90.82;97808.38;5069770;28;20281;-62
2022/04/02 00:43:42;;;;;;;14.57;5.70;;;;;;;13.96;90.93;97809.09;5069917;28;20198;-62
2022/04/02 00:46:11;;;;;;;12.20;6.27;;;;;;;13.94;90.89;97812.59;5069730;28;20242;-62
2022/04/02 00:48:39;;;;;;;15.10;6.50;;;;;;;13.91;90.73;97812.69;5069904;28;21058;-62
2022/04/02 00:51:08;;;;;;;17.93;7.03;;;;;;;13.90;90.29;97808.41;5069843;28;20625;-63
2022/04/02 00:53:39;;;;;;;20.75;8.18;;;;;;;13.95;90.52;97799.66;5072731;28;20433;-63
2022/04/02 00:56:07;;;;;;;12.90;6.07;;;;;;;14.01;89.58;97796.91;5073337;28;20191;-63
2022/04/02 00:58:34;;;;;;;13.57;5.93;;;;;;;14.03;89.18;97791.75;5073606;28;20188;-62
2022/04/02 01:01:01;;;;;;;19.00;8.53;;;;;;;14.01;89.30;97796.91;5073139;28;20320;-62
2022/04/02 01:03:28;;;;;;;11.03;6.80;;;;;;;13.99;89.82;97790.97;5073392;28;20627;-62
2022/04/02 01:05:56;;;;;;;12.03;5.30;;;;;;;13.87;89.42;97786.06;5073094;28;20213;-62
2022/04/02 01:08:22;;;;;;;11.60;6.37;;;;;;;13.90;89.88;97793.75;5072763;28;20208;-62
2022/04/02 01:10:49;;;;;;;10.73;6.03;;;;;;;13.92;89.99;97788.56;5079220;28;20563;-62
2022/04/02 01:13:18;;;;;;;14.77;6.87;;;;;;;13.90;90.22;97798.91;5079692;28;20216;-62
2022/04/02 01:15:45;;;;;;;12.53;6.30;;;;;;;13.92;89.67;97799.75;5082085;28;20222;-62
2022/04/02 01:18:12;;;;;;;12.43;6.00;;;;;;;13.94;89.54;97799.69;5066197;28;20284;-63
2022/04/02 01:20:39;;;;;;;16.20;6.03;;;;;;;13.90;89.93;97795.50;5072909;28;20234;-62
2022/04/02 01:23:08;;;;;;;12.27;6.70;;;;;;;13.90;90.49;97803.25;5072929;28;20282;-62
2022/04/02 01:25:35;;;;;;;12.23;5.83;;;;;;;13.90;90.25;97808.41;5072306;28;20580;-63
2022/04/02 01:28:04;;;;;;;13.17;6.07;;;;;;;13.90;90.44;97803.25;5052588;28;20214;-62
2022/04/02 01:30:31;;;;;;;12.57;6.83;;;;;;;13.82;90.27;97816.31;5052794;28;20203;-63
2022/04/02 01:32:59;;;;;;;21.87;11.30;;;;;;;13.67;90.86;97814.13;5052875;28;20220;-62
2022/04/02 01:35:26;;;;;;;14.93;7.20;;;;;;;13.56;91.30;97813.50;5052660;28;20744;-62
2022/04/02 01:37:54;;;;;;;12.17;7.10;;;;;;;13.55;91.49;97812.66;5052672;28;20187;-62
2022/04/02 01:40:22;;;;;;;19.60;7.50;;;;;;;13.57;91.86;97804.88;5052510;28;20195;-62
2022/04/02 01:42:49;;;;;;;14.60;7.17;;;;;;;13.57;92.26;97803.13;5052590;28;20203;-63
2022/04/02 01:45:16;;;;;;;16.47;7.33;;;;;;;13.57;91.82;97812.59;5052570;28;20212;-62
2022/04/02 01:47:44;;;;;;;18.97;7.73;;;;;;;13.55;91.70;97801.47;5052374;28;20216;-63
2022/04/02 01:50:11;;;;;;;14.30;7.23;;;;;;;13.43;92.18;97812.91;5052522;28;20197;-63
2022/04/02 01:52:38;;;;;;;14.17;7.13;;;;;;;13.27;92.27;97805.53;5052368;28;20208;-62
2022/04/02 01:55:07;;;;;;;15.10;7.60;;;;;;;13.27;92.04;97806.41;5052358;28;20189;-62
2022/04/02 01:57:35;;;;;;;14.47;7.63;;;;;;;13.26;92.14;97804.72;5052458;28;20937;-62
2022/04/02 02:00:03;;;;;;;12.43;7.70;;;;;;;13.17;92.54;97812.66;5052260;28;20725;-62
2022/04/02 02:02:30;;;;;;;14.53;7.10;;;;;;;13.17;92.56;97824.69;5052051;28;20196;-64
2022/04/02 02:04:57;;;;;;;15.13;8.70;;;;;;;13.17;91.40;97817.81;5052247;28;20254;-62
2022/04/02 02:07:25;;;;;;;15.33;8.03;;;;;;;13.19;91.87;97834.06;5051893;28;20311;-63
2022/04/02 02:09:53;;;;;;;14.67;8.40;;;;;;;13.16;92.23;97813.50;5052169;28;20202;-62
2022/04/02 02:12:20;;;;;;;12.87;7.90;;;;;;;13.11;92.28;97799.88;5052026;28;20417;-63
2022/04/02 02:14:48;;;;;;;10.33;6.93;;;;;;;13.11;92.20;97825.66;5052017;28;20274;-62
2022/04/02 02:17:16;;;;;;;14.07;7.50;;;;;;;13.12;92.40;97840.25;5062620;28;20199;-63
2022/04/02 02:19:42;;;;;;;16.93;7.63;;;;;;;13.08;92.48;97843.75;5072092;28;20192;-62
2022/04/02 02:22:09;;;;;;;13.90;7.90;;;;;;;13.06;93.06;97842.06;5071789;28;20199;-63
2022/04/02 02:24:36;;;;;;;13.70;7.33;;;;;;;12.96;91.84;97831.09;5071680;28;20195;-62
2022/04/02 02:27:03;;;;;;;15.50;8.13;;;;;;;13.03;92.29;97843.84;5071671;28;20703;-62
2022/04/02 02:29:30;;;;;;;14.83;8.23;;;;;;;12.99;93.32;97847.34;5071670;28;20206;-62
2022/04/02 02:31:59;;;;;;;18.67;8.07;;;;;;;12.96;94.23;97847.41;5071723;28;20184;-62
2022/04/02 02:37:10;;;;;;;17.93;8.03;;;;;;;12.95;94.31;97850.00;5075265;28;20196;-63
2022/04/02 02:39:37;;;;;;;11.37;6.23;;;;;;;12.91;93.71;97858.69;5078614;28;20669;-63
2022/04/02 02:42:05;;;;;;;14.27;7.30;;;;;;;12.74;92.49;97871.06;5079754;28;20699;-62
2022/04/02 02:44:32;;;;;;;8.60;6.10;;;;;;;12.48;92.36;97883.53;5081342;28;20192;-62
2022/04/02 02:47:00;;;;;;;10.20;5.70;;;;;;;12.29;91.80;97865.81;5079868;28;20207;-59
2022/04/02 02:49:27;;;;;;;9.27;5.03;;;;;;;12.19;91.62;97872.00;5076953;28;20188;-63
2022/04/02 02:51:54;;;;;;;8.60;5.00;;;;;;;12.15;91.73;97880.63;5071093;28;20195;-63
2022/04/02 02:54:21;;;;;;;7.83;4.40;;;;;;;12.14;91.33;97873.78;5071109;28;20281;-62
2022/04/02 02:56:47;;;;;;;14.93;5.80;;;;;;;12.10;91.37;97882.44;5071075;28;20187;-63
2022/04/02 02:59:14;;;;;;;10.27;4.93;;;;;;;12.09;91.16;97880.72;5071033;28;20214;-61
2022/04/02 03:01:41;;;;;;;12.00;5.00;;;;;;;12.09;91.15;97882.44;5070977;28;20183;-62
2022/04/02 03:04:09;;;;;;;9.87;5.67;;;;;;;11.95;91.54;97879.28;5070876;28;20296;-62
2022/04/02 03:06:37;;;;;;;9.37;5.20;;;;;;;11.98;91.27;97886.91;5071091;28;20223;-62
2022/04/02 03:09:04;;;;;;;9.43;5.30;;;;;;;12.00;91.35;97880.91;5071029;28;20191;-63
2022/04/02 03:11:32;;;;;;;14.63;6.83;;;;;;;11.93;91.75;97883.56;5070770;28;20196;-63
2022/04/02 03:13:59;;;;;;;12.27;6.40;;;;;;;11.87;91.81;97893.97;5070774;28;20218;-59
2022/04/02 03:16:25;;;;;;;13.00;7.32;;;;;;;11.78;92.59;97905.25;5070499;28;20611;-60
2022/04/02 03:18:52;;;;;;;11.83;7.10;;;;;;;11.67;92.84;97907.91;5070971;28;20192;-59
2022/04/02 03:21:21;;;;;;;9.20;6.27;;;;;;;11.65;92.82;97903.66;5070747;28;20195;-59
2022/04/02 03:23:48;;;;;;;14.00;7.10;;;;;;;11.50;93.77;97901.31;5070605;28;20195;-59
2022/04/02 03:26:15;;;;;;;16.23;7.33;;;;;;;11.36;94.01;97908.34;5070585;28;20195;-59
2022/04/02 03:28:43;;;;;;;18.77;8.70;;;;;;;11.26;94.99;97917.91;5070733;28;20219;-59
2022/04/02 03:31:10;;;;;;;13.50;8.73;;;;;;;11.41;94.73;97919.41;5070856;28;20192;-59
2022/04/02 03:33:37;;;;;;;18.97;9.27;;;;;;;11.43;94.49;97915.09;5070502;28;20624;-60
2022/04/02 03:36:05;;;;;;;19.43;11.63;;;;;;;11.44;94.21;97914.22;5070648;28;20198;-60
2022/04/02 03:38:33;;;;;;;15.57;8.93;;;;;;;11.41;94.29;97919.41;5070515;28;20191;-59
2022/04/02 03:41:00;;;;;;;16.27;8.83;;;;;;;11.42;94.64;97921.97;5070416;28;20283;-59
2022/04/02 03:43:27;;;;;;;15.27;7.93;;;;;;;11.45;94.83;97927.09;5070557;28;20191;-60
2022/04/02 03:47:07;;;;;;;13.53;8.80;;;;;;;11.39;94.05;97936.59;5070413;28;20217;-59
2022/04/02 03:48:41;;;;;;;16.43;8.00;;;;;;;11.36;94.22;97939.19;5070328;28;20219;-60
2022/04/02 03:51:08;;;;;;;18.17;9.00;;;;;;;11.42;93.73;97957.13;5070409;28;20302;-60
2022/04/02 03:53:36;;;;;;;15.50;9.53;;;;;;;11.49;93.52;97967.31;5070538;28;20195;-61
2022/04/02 03:56:03;;;;;;;21.33;9.83;;;;;;;11.53;94.17;97973.28;5070073;28;20197;-63
2022/04/02 03:58:32;;;;;;;12.97;8.67;;;;;;;11.60;93.56;97986.03;5070368;28;20198;-63
2022/04/02 04:00:59;;;;;;;16.60;10.03;;;;;;;11.62;93.93;97976.56;5070013;28;20227;-62
2022/04/02 04:03:26;;;;;;;17.60;9.50;;;;;;;11.71;93.66;97978.22;5070178;28;20286;-62
2022/04/02 04:05:53;;;;;;;16.77;10.68;;;;;;;11.78;93.28;97985.81;5069448;28;20437;-62
2022/04/02 04:08:20;;;;;;;15.10;10.03;;;;;;;11.81;93.54;97987.53;5069911;28;20215;-62
2022/04/02 04:10:48;;;;;;;16.43;10.17;;;;;;;11.87;93.16;97992.56;5070421;28;20195;-62
2022/04/02 04:13:15;;;;;;;20.27;9.83;;;;;;;11.87;93.26;97994.31;5069973;28;20198;-62
2022/04/02 04:15:42;;;;;;;12.97;9.57;;;;;;;11.88;92.94;97998.59;5070154;28;20199;-62
2022/04/02 04:18:09;;;;;;;18.90;10.23;;;;;;;11.93;92.60;98012.22;5069972;28;20187;-63
2022/04/02 04:20:36;;;;;;;15.50;9.50;;;;;;;11.91;92.95;98016.56;5069749;28;20201;-62
2022/04/02 04:23:03;;;;;;;16.60;10.40;;;;;;;11.85;93.23;98012.34;5069938;28;20211;-62
2022/04/02 04:25:30;;;;;;;20.13;10.10;;;;;;;11.90;92.84;98020.00;5070170;28;20199;-62
2022/04/02 04:28:01;;;;;;;15.63;9.30;;;;;;;11.88;93.16;98017.44;5072736;28;20219;-62
2022/04/02 04:30:28;;;;;;;19.33;10.20;;;;;;;11.85;93.08;98014.91;5073819;28;20191;-62
2022/04/02 04:32:55;;;;;;;13.80;9.60;;;;;;;11.90;93.71;98013.13;5073905;28;20188;-62
2022/04/02 04:35:22;;;;;;;19.43;8.93;;;;;;;11.65;93.23;97961.09;5073753;28;20191;-62
2022/04/02 04:37:50;;;;;;;18.53;9.73;;;;;;;11.99;93.29;98007.00;5073639;28;20192;-63
2022/04/02 04:40:17;;;;;;;18.37;10.63;;;;;;;12.06;93.23;98019.78;5073402;28;21005;-65
2022/04/02 04:42:44;;;;;;;16.00;9.83;;;;;;;12.14;93.25;98017.94;5073586;28;20196;-62
2022/04/02 04:45:13;;;;;;;16.13;10.47;;;;;;;12.21;92.62;98022.16;5073598;28;20196;-63
2022/04/02 04:47:45;;;;;;;17.77;10.30;;;;;;;12.29;92.06;98024.63;5073700;28;21056;-63
2022/04/02 04:50:12;;;;;;;18.50;11.17;;;;;;;12.37;91.94;98027.94;5073412;28;20191;-62
2022/04/02 04:52:39;;;;;;;19.27;10.27;;;;;;;12.44;91.64;98029.56;5073748;28;20198;-62
2022/04/02 04:55:07;;;;;;;18.70;12.37;;;;;;;12.52;90.81;98029.44;5073391;28;20195;-63
2022/04/02 04:57:34;;;;;;;19.63;11.07;;;;;;;12.57;90.72;98030.22;5072915;28;20183;-62
2022/04/02 05:00:01;;;;;;;20.50;11.53;;;;;;;12.65;89.73;98038.69;5073230;28;20673;-62
2022/04/02 05:02:30;;;;;;;21.40;11.07;;;;;;;12.68;90.27;98038.63;5073230;28;20191;-62
2022/04/02 05:04:57;;;;;;;22.23;11.20;;;;;;;12.66;91.03;98030.09;5073392;28;20192;-62
2022/04/02 05:07:24;;;;;;;18.67;11.53;;;;;;;12.71;90.23;98044.59;5073244;28;20223;-62
2022/04/02 05:09:51;;;;;;;15.80;10.83;;;;;;;12.66;90.53;98036.06;5073143;28;20199;-62
2022/04/02 05:12:19;;;;;;;22.27;11.20;;;;;;;12.82;90.12;98041.84;5073057;28;20203;-62
2022/04/02 05:14:46;;;;;;;17.17;10.97;;;;;;;12.91;89.72;98039.97;5073006;28;20654;-63
2022/04/02 05:17:13;;;;;;;16.23;10.47;;;;;;;12.98;88.91;98044.16;5073003;28;20197;-63
2022/04/02 05:19:41;;;;;;;18.17;11.30;;;;;;;13.07;88.78;98053.50;5069435;28;20222;-63
2022/04/02 05:22:10;;;;;;;17.20;10.60;;;;;;;13.16;88.38;98053.31;5071855;28;20696;-62
2022/04/02 05:24:37;;;;;;;22.60;11.90;;;;;;;13.25;88.01;98058.34;5072917;28;20207;-62
2022/04/02 05:27:04;;;;;;;23.20;10.93;;;;;;;13.35;87.65;98059.84;5077853;28;20201;-63
2022/04/02 05:29:32;;;;;;;24.15;12.07;;;;;;;13.45;87.41;98058.84;5080520;28;20467;-62
2022/04/02 05:31:58;;;;;;;17.00;10.20;;;;;;;13.60;86.68;98073.16;5077330;28;20192;-63
2022/04/02 05:34:25;;;;;;;18.27;10.30;;;;;;;13.69;85.51;98067.84;5082636;28;20194;-62
2022/04/02 05:36:54;;;;;;;17.47;10.87;;;;;;;13.79;84.31;98063.38;5081859;28;20180;-62
2022/04/02 05:39:21;;;;;;;19.33;10.43;;;;;;;13.89;84.25;98060.56;5080591;28;20215;-62
2022/04/02 05:41:48;;;;;;;17.53;11.40;;;;;;;14.01;83.94;98062.88;5078289;28;20204;-63
2022/04/02 05:44:15;;;;;;;15.85;10.82;;;;;;;13.99;83.00;98074.97;5070732;28;20532;-63
2022/04/02 05:46:42;;;;;;;16.97;10.23;;;;;;;13.90;82.88;98079.50;5072338;28;20227;-63
2022/04/02 05:49:09;;;;;;;17.47;10.20;;;;;;;13.89;82.58;98075.19;5071967;28;20215;-62
2022/04/02 05:51:36;;;;;;;16.63;11.60;;;;;;;13.78;83.57;98087.47;5072309;28;20216;-63
2022/04/02 05:54:04;;;;;;;13.00;10.33;;;;;;;13.25;86.19;98088.41;5073639;28;20188;-63
2022/04/02 05:56:33;;;;;;;21.30;11.33;;;;;;;13.27;87.17;98084.09;5078441;28;20589;-63
2022/04/02 05:59:00;;;;;;;16.23;11.73;;;;;;;13.39;87.07;98083.88;5080667;28;20215;-62
2022/04/02 06:01:27;;;;;;;13.13;11.20;;;;;;;13.39;87.50;98071.84;5077205;28;20231;-62
2022/04/02 06:03:55;;;;;;;20.17;11.97;;;;;;;13.57;87.14;98068.91;5077369;28;20186;-63
2022/04/02 06:06:22;;;;;;;21.37;12.37;;;;;;;13.71;86.94;98057.47;5081372;28;20581;-63
2022/04/02 06:08:49;;;;;;;17.13;11.53;;;;;;;13.91;86.00;98069.13;5080913;28;20222;-62
2022/04/02 06:11:17;;;;;;;16.70;11.80;;;;;;;14.00;84.30;98081.00;5077921;28;20699;-62
2022/04/02 06:13:44;;;;;;;21.33;12.60;;;;;;;13.95;83.93;98077.66;5081281;28;20572;-62
2022/04/02 06:16:11;;;;;;;18.80;14.60;;;;;;;13.93;83.71;98079.41;5077013;28;20203;-63
2022/04/02 06:18:38;;;;;;;22.53;14.20;;;;;;;13.92;83.48;98073.41;5062909;28;20204;-63
2022/04/02 06:21:05;;;;;;;19.20;14.13;;;;;;;13.91;83.47;98074.28;5051956;28;20188;-62
2022/04/02 06:23:32;;;;;;;17.13;13.10;;;;;;;13.99;82.47;98081.88;5051589;28;20594;-62
2022/04/02 06:25:59;;;;;;;24.97;14.63;;;;;;;14.02;82.30;98081.81;5059223;28;20221;-63
2022/04/02 06:28:28;;;;;;;26.27;16.27;;;;;;;14.12;81.80;98073.84;5071336;28;20219;-63
2022/04/02 06:30:56;;;;;;;20.33;15.43;;;;;;;14.29;80.97;98082.97;5071843;28;20955;-62
2022/04/02 06:33:23;;;;;;;21.70;14.67;;;;;;;14.33;80.65;98076.91;5071713;28;20197;-63
2022/04/02 06:35:50;;;;;;;24.03;13.53;;;;;;;14.48;78.81;98085.16;5071658;28;21045;-63
2022/04/02 06:38:17;;;;;;;23.07;12.10;;;;;;;14.61;76.92;98080.59;5071731;28;20270;-62
2022/04/02 06:40:44;;;;;;;23.67;13.30;;;;;;;14.76;75.51;98078.50;5080305;28;20210;-61
2022/04/02 06:43:11;;;;;;;18.37;14.27;;;;;;;14.87;75.33;98085.16;5081034;28;20189;-62
2022/04/02 06:45:40;;;;;;;26.10;14.37;;;;;;;14.96;75.11;98084.94;5081501;28;20211;-62
2022/04/02 06:48:07;;;;;;;18.43;12.07;;;;;;;15.05;76.17;98082.97;5079524;28;20294;-61
2022/04/02 06:50:34;;;;;;;15.67;8.70;;;;;;;15.02;76.88;98089.97;5074177;28;20685;-61
2022/04/02 06:53:01;;;;;;;23.23;9.07;;;;;;;15.04;77.62;98076.09;5070515;28;20290;-62
2022/04/02 06:55:28;;;;;;;11.13;7.30;;;;;;;15.11;77.31;98084.56;5070677;28;20203;-62
2022/04/02 06:57:57;;;;;;;12.10;7.33;;;;;;;15.12;78.56;98081.09;5070713;28;20193;-62
2022/04/02 07:00:24;;;;;;;14.47;8.33;;;;;;;15.15;79.08;98079.28;5078288;28;20928;-62
2022/04/02 07:02:53;;;;;;;18.20;7.53;;;;;;;15.24;78.32;98079.03;5076708;28;20199;-63
2022/04/02 07:05:20;;;;;;;14.40;7.43;;;;;;;15.22;79.31;98073.06;5077816;28;20246;-61
2022/04/02 07:07:47;;;;;;;15.33;7.70;;;;;;;15.29;79.68;98078.94;5072809;28;20190;-61
2022/04/02 07:10:14;;;;;;;16.70;8.70;;;;;;;15.23;79.46;98055.81;5070570;28;20195;-62
2022/04/02 07:12:41;;;;;;;15.35;8.50;;;;;;;15.46;79.30;98073.34;5064120;28;20970;-61
2022/04/02 07:15:09;;;;;;;12.90;7.83;;;;;;;15.55;77.26;98079.13;5070547;28;20205;-61
2022/04/02 07:17:36;;;;;;;16.27;7.90;;;;;;;15.66;75.68;98071.94;5070598;28;20621;-61
2022/04/02 07:20:06;;;;;;;22.33;8.20;;;;;;;15.70;74.07;98086.50;5070389;28;20223;-61
2022/04/02 07:22:35;;;;;;;15.20;9.90;;;;;;;15.71;74.17;98087.38;5076519;28;20195;-62
2022/04/02 07:25:04;;;;;;;12.73;7.77;;;;;;;15.82;72.70;98085.34;5076355;28;20319;-62
2022/04/02 07:27:31;;;;;;;15.17;7.17;;;;;;;15.91;71.43;98093.69;5079865;28;20186;-62
2022/04/02 07:29:58;;;;;;;11.47;6.20;;;;;;;15.88;70.30;98079.97;5070583;28;20226;-62
2022/04/02 07:32:25;;;;;;;11.87;5.27;;;;;;;16.15;69.18;98096.50;5050058;28;20651;-61
2022/04/02 07:34:52;;;;;;;9.30;4.97;;;;;;;16.25;68.26;98103.13;5050055;28;20200;-62
2022/04/02 07:37:31;;;;;;;10.57;4.60;;;;;;;16.29;68.50;98089.16;5050198;28;20569;-61
2022/04/02 07:40:05;;;;;;;10.00;4.87;;;;;;;16.38;68.96;98096.69;5050368;28;20185;-62
2022/04/02 07:42:38;;;;;;;8.07;4.20;;;;;;;16.56;67.63;98110.88;5050306;28;20203;-61
2022/04/02 07:45:06;;;;;;;8.23;4.33;;;;;;;16.61;65.63;98107.25;5049821;28;20197;-62
2022/04/02 07:47:35;;;;;;;12.47;3.77;;;;;;;16.77;63.02;98115.41;5049930;28;20204;-62
2022/04/02 07:50:05;;;;;;;10.13;4.00;;;;;;;16.93;63.08;98111.44;5049834;28;20220;-61
2022/04/02 07:52:36;;;;;;;3.90;3.33;;;;;;;17.01;61.61;98118.09;5053121;28;20283;-61
2022/04/02 07:55:07;;;;;;;6.70;3.17;;;;;;;17.15;60.87;98116.81;5053487;28;21004;-61
2022/04/02 07:57:39;;;;;;;4.73;2.50;;;;;;;17.30;57.31;98121.53;5049438;28;20188;-61
2022/04/02 08:00:10;;;;;;;8.53;3.23;;;;;;;17.46;55.88;98120.09;5049366;28;20191;-62
2022/04/02 08:02:38;;;;;;;3.47;2.50;;;;;;;17.53;56.66;98111.19;5049595;28;20198;-62
2022/04/02 08:05:10;;;;;;;6.70;3.37;;;;;;;17.69;55.43;98105.47;5049808;28;20194;-62
2022/04/02 08:07:39;;;;;;;5.63;3.30;;;;;;;17.72;56.19;98109.72;5050015;28;20258;-61
2022/04/02 08:10:10;;;;;;;7.80;3.00;;;;;;;17.84;54.48;98106.69;5049187;28;20223;-61
2022/04/02 08:12:38;;;;;;;5.23;2.37;;;;;;;17.81;54.26;98090.34;5048463;28;20647;-61
2022/04/02 08:15:07;;;;;;;7.73;3.67;;;;;;;17.91;53.86;98096.94;5048370;28;20203;-62
2022/04/02 08:17:34;;;;;;;4.93;3.40;;;;;;;18.05;52.17;98092.06;5047536;28;20204;-62
2022/04/02 08:20:02;;;;;;;5.53;2.73;;;;;;;18.09;48.47;98097.13;5047495;28;20191;-62
2022/04/02 08:22:30;;;;;;;6.30;2.40;;;;;;;18.29;48.76;98096.41;5047053;28;20199;-62
2022/04/02 08:24:59;;;;;;;4.03;2.20;;;;;;;18.39;48.84;98099.50;5047620;28;20188;-62
2022/04/02 08:27:35;;;;;;;4.10;2.43;;;;;;;18.39;46.98;98089.09;5047714;28;20185;-62
2022/04/02 08:30:08;;;;;;;5.47;2.07;;;;;;;18.32;47.42;98085.03;5048147;28;20216;-62
2022/04/02 08:33:10;;;;;;;3.03;1.93;;;;;;;18.29;46.44;98081.63;5049256;28;20283;-62
2022/04/02 08:35:42;;;;;;;3.85;2.47;;;;;;;18.45;47.40;98084.53;5043844;28;20443;-62
2022/04/02 08:38:27;;;;;;;4.33;2.20;;;;;;;18.50;45.93;98058.34;5049292;28;20188;-62
2022/04/02 08:41:28;;;;;;;2.00;1.70;;;;;;;18.70;45.85;98074.06;5049333;28;20563;-62
2022/04/02 08:44:27;;;;;;;2.47;1.93;;;;;;;18.86;41.66;98072.53;5049459;28;20195;-62
2022/04/02 08:47:11;;;;;;;2.73;1.50;;;;;;;18.94;40.98;98070.47;5049209;28;20196;-62
2022/04/02 08:49:42;;;;;;;3.00;1.77;;;;;;;18.97;41.82;98072.97;5049209;28;20212;-62
2022/04/02 08:52:22;;;;;;;2.47;1.90;;;;;;;19.04;41.18;98070.94;5049232;28;20695;-62
2022/04/02 08:55:09;;;;;;;1.40;1.30;;;;;;;19.13;39.50;98071.44;5049204;28;20563;-62
2022/04/02 08:58:11;;;;;;;2.30;1.70;;;;;;;19.24;39.68;98069.25;5049586;28;20192;-63
2022/04/02 09:00:43;;;;;;;1.93;1.70;;;;;;;19.36;40.39;98062.69;5033934;28;20706;-62
2022/04/02 09:04:07;;;;;;;2.17;1.93;;;;;;;19.57;39.42;98069.63;5049532;28;20310;-62
2022/04/02 09:07:25;;;;;;;2.03;1.93;;;;;;;19.70;38.77;98073.38;5048973;28;20196;-63
2022/04/02 09:10:22;;;;;;;2.20;1.60;;;;;;;19.61;38.44;98068.59;5049130;28;20219;-63
2022/04/02 09:13:19;;;;;;;1.60;1.50;;;;;;;19.55;38.78;98063.63;5019440;28;20196;-62
2022/04/02 09:15:57;;;;;;;1.70;1.60;;;;;;;19.55;38.43;98053.22;5053084;28;20200;-62
2022/04/02 09:18:37;;;;;;;3.00;1.60;;;;;;;19.72;38.19;98055.09;5052405;28;20196;-63
2022/04/02 09:21:23;;;;;;;2.83;1.60;;;;;;;19.75;37.90;98061.00;5052395;28;20207;-62
2022/04/02 09:24:02;;;;;;;1.70;1.60;;;;;;;19.88;38.82;98058.72;5052729;28;20199;-62
2022/04/02 09:27:08;;;;;;;1.60;1.50;;;;;;;19.89;37.54;98057.78;5052159;28;20206;-62
2022/04/02 09:29:51;;;;;;;1.60;1.50;;;;;;;19.81;37.38;98052.06;5043933;28;20283;-63
2022/04/02 09:32:47;;;;;;;4.10;1.57;;;;;;;19.89;37.06;98053.41;5052163;28;20195;-63
2022/04/02 09:35:41;;;;;;;2.60;2.30;;;;;;;19.98;37.64;98045.19;5052078;28;20223;-63
2022/04/02 09:38:45;;;;;;;1.70;1.60;;;;;;;20.17;36.57;98049.56;5051140;28;20435;-62
2022/04/02 09:41:24;;;;;;;2.07;1.70;;;;;;;20.32;36.55;98057.59;5052474;28;21345;-63
2022/04/02 09:44:05;;;;;;;2.00;1.80;;;;;;;20.36;35.95;98045.25;5052074;28;20192;-63
2022/04/02 09:47:04;;;;;;;1.90;1.73;;;;;;;20.47;36.31;98053.41;5052160;28;20192;-63
2022/04/02 09:49:42;;;;;;;2.00;1.80;;;;;;;20.43;36.27;98033.63;5051657;28;20227;-62
2022/04/02 09:52:09;;;;;;;3.43;2.20;;;;;;;20.46;37.07;98042.13;5052223;28;20242;-63
2022/04/02 09:54:46;;;;;;;1.80;1.60;;;;;;;20.52;36.52;98047.06;5051954;28;20196;-62
2022/04/02 09:57:26;;;;;;;3.00;2.10;;;;;;;20.56;36.58;98037.34;5051700;28;20195;-63
2022/04/02 10:00:05;;;;;;;3.17;2.40;;;;;;;20.43;36.80;98038.84;5051714;28;20224;-63
2022/04/02 10:02:47;;;;;;;2.63;1.80;;;;;;;20.30;36.65;98012.47;5051970;28;20274;-63
2022/04/02 10:05:16;;;;;;;1.90;1.50;;;;;;;20.50;36.14;98030.66;5051777;28;20417;-63
2022/04/02 10:07:58;;;;;;;1.47;1.40;;;;;;;20.45;36.24;98048.28;5051485;28;20254;-62
2022/04/02 10:10:26;;;;;;;2.57;2.37;;;;;;;20.56;36.42;98032.97;5051066;28;20220;-63
2022/04/02 10:12:54;;;;;;;1.88;1.73;;;;;;;20.69;36.01;98040.22;5050665;28;20502;-63
2022/04/02 10:15:23;;;;;;;2.57;1.77;;;;;;;20.82;35.47;98042.16;5050968;28;20200;-62
2022/04/02 10:17:53;;;;;;;2.20;1.70;;;;;;;20.97;35.47;98027.53;5050723;28;20207;-62
2022/04/02 10:20:23;;;;;;;2.70;2.03;;;;;;;21.13;35.73;98025.88;5050835;28;20199;-62
2022/04/02 10:23:02;;;;;;;4.57;2.00;;;;;;;21.22;35.47;98017.59;5050654;28;20583;-63
2022/04/02 10:25:30;;;;;;;2.45;1.95;;;;;;;21.20;35.71;98029.03;5049903;28;20863;-62
2022/04/02 10:27:57;;;;;;;1.90;1.77;;;;;;;21.09;36.13;98022.59;5050705;28;20271;-63
2022/04/02 10:30:26;;;;;;;2.10;1.87;;;;;;;20.98;36.31;98016.16;5050744;28;20231;-63
2022/04/02 10:32:57;;;;;;;3.97;1.93;;;;;;;20.78;36.77;97985.81;5050873;28;20204;-63
2022/04/02 10:35:26;;;;;;;2.70;2.03;;;;;;;20.86;37.44;98003.69;5050810;28;20537;-63
2022/04/02 10:38:10;;;;;;;3.73;2.17;;;;;;;20.96;37.69;98010.16;5050838;28;20567;-63
2022/04/02 10:40:42;;;;;;;4.47;2.00;;;;;;;20.99;37.34;98002.16;5050143;28;20238;-63
2022/04/02 10:43:23;;;;;;;2.97;2.17;;;;;;;21.01;37.21;98003.78;5050800;28;20695;-62
2022/04/02 10:45:50;;;;;;;2.97;1.87;;;;;;;20.96;37.27;98005.78;5050948;28;20198;-62
2022/04/02 10:48:27;;;;;;;1.80;1.70;;;;;;;21.02;36.08;98002.88;5050934;28;20635;-62
2022/04/02 10:50:55;;;;;;;2.30;2.10;;;;;;;21.20;36.49;98003.78;5050653;28;20813;-62
2022/04/02 10:53:22;;;;;;;5.10;2.17;;;;;;;;;;5050953;28;20218;-63
2022/04/02 10:55:58;;;;;;;2.83;1.93;;;;;;;21.27;35.95;97963.34;5050765;28;20197;-62
2022/04/02 10:58:25;;;;;;;3.93;1.87;;;;;;;21.34;36.26;97983.03;5050310;28;20605;-63
2022/04/02 11:00:56;;;;;;;1.97;1.80;;;;;;;21.27;36.12;97983.38;5050417;28;20223;-62
2022/04/02 11:03:39;;;;;;;4.30;2.10;;;;;;;21.12;36.20;97980.63;5050547;28;20571;-62
2022/04/02 11:06:06;;;;;;;2.60;2.10;;;;;;;21.19;36.55;97981.16;5050183;28;20192;-62
2022/04/02 11:08:33;;;;;;;4.63;2.40;;;;;;;21.23;37.97;97985.34;5050330;28;20196;-62
2022/04/02 11:11:14;;;;;;;2.47;2.27;;;;;;;21.29;38.63;97981.56;5050660;28;20242;-63
2022/04/02 11:13:44;;;;;;;5.20;3.23;;;;;;;21.33;35.47;97985.69;5050365;28;20279;-63
2022/04/02 11:16:15;;;;;;;14.97;9.30;;;;;;;21.60;34.39;97968.59;5050608;28;20269;-62
2022/04/02 11:19:53;;;;;;;5.87;2.33;;;;;;;21.78;34.46;97986.75;5050223;28;20279;-63
2022/04/02 11:21:44;;;;;;;7.67;2.30;;;;;;;21.98;35.51;97979.66;5050523;28;20188;-62
2022/04/02 11:24:18;;;;;;;3.27;2.80;;;;;;;22.00;36.54;97973.41;5051132;28;20212;-62
2022/04/02 11:26:49;;;;;;;4.70;2.70;;;;;;;22.24;36.33;97971.25;5053097;28;20192;-63
2022/04/02 11:29:19;;;;;;;3.37;2.20;;;;;;;22.44;35.34;97972.78;5069325;28;20222;-62
2022/04/02 11:31:47;;;;;;;6.40;2.40;;;;;;;22.43;33.90;97977.16;5078855;28;20203;-63
2022/04/02 11:34:19;;;;;;;4.47;1.73;;;;;;;22.46;31.07;97981.38;5067467;28;20556;-62
2022/04/02 11:36:48;;;;;;;2.40;1.17;;;;;;;22.43;30.44;97973.69;5049377;28;20288;-63
2022/04/02 11:39:20;;;;;;;2.60;1.47;;;;;;;22.29;29.57;97972.69;5069543;28;20196;-63
2022/04/02 11:41:51;;;;;;;2.17;1.33;;;;;;;22.22;27.82;97967.88;5076205;28;20283;-63
2022/04/02 11:44:18;;;;;;;1.00;1.00;;;;;;;22.00;25.73;97968.19;5078563;28;20218;-64
2022/04/02 11:47:05;;;;;;;1.10;1.10;;;;;;;21.97;25.72;97963.16;5075179;28;20191;-63